Time;durP1;ratioP1;P1;durP2;ratioP2;P2;SDS_P1;SDS_P2;PMS_P1;PMS_P2;Temp;Humidity;BMP_temperature;BMP_pressure;BME280_temperature;BME280_humidity;BME280_pressure;Samples;Min_cycle;Max_cycle;Signal;HPM_P1;HPM_P2
2022/12/05 00:00:53;;;;;;;75.95;33.30;;;3.60;99.90;;;;;;5070061;28;20024;-71
2022/12/05 00:03:19;;;;;;;77.53;34.70;;;3.60;99.90;;;;;;5070527;28;20031;-71
2022/12/05 00:05:45;;;;;;;77.28;33.35;;;3.60;99.90;;;;;;5057035;28;20372;-71
2022/12/05 00:08:10;;;;;;;72.95;32.33;;;3.70;99.90;;;;;;5071809;28;20025;-71
2022/12/05 00:10:37;;;;;;;75.75;33.58;;;3.70;99.90;;;;;;5070971;28;20025;-71
2022/12/05 00:13:02;;;;;;;75.38;33.53;;;3.70;99.90;;;;;;5071060;28;20048;-71
2022/12/05 00:15:28;;;;;;;73.05;32.60;;;3.70;99.90;;;;;;5067184;28;20113;-71
2022/12/05 00:17:53;;;;;;;72.32;32.08;;;3.70;99.90;;;;;;5051244;28;20033;-71
2022/12/05 00:20:19;;;;;;;75.95;32.75;;;3.70;99.90;;;;;;5063586;28;20029;-73
2022/12/05 00:22:45;;;;;;;75.63;33.05;;;3.70;99.90;;;;;;5066809;28;20108;-73
2022/12/05 00:25:11;;;;;;;75.50;33.13;;;3.80;99.90;;;;;;5057173;28;20112;-71
2022/12/05 00:27:36;;;;;;;74.35;32.72;;;3.80;99.90;;;;;;5050497;28;20052;-71
2022/12/05 00:30:03;;;;;;;73.70;33.10;;;3.80;99.90;;;;;;5049751;28;20028;-72
2022/12/05 00:32:29;;;;;;;77.00;32.60;;;3.80;99.90;;;;;;5064673;28;20025;-71
2022/12/05 00:34:55;;;;;;;74.57;32.33;;;3.80;99.90;;;;;;5069085;28;20055;-71
2022/12/05 00:37:21;;;;;;;74.43;32.92;;;3.80;99.90;;;;;;5063769;28;20028;-72
2022/12/05 00:39:46;;;;;;;69.28;31.17;;;3.80;99.90;;;;;;5068942;28;20426;-72
2022/12/05 00:42:12;;;;;;;73.90;33.03;;;3.90;99.90;;;;;;5069839;28;20024;-72
2022/12/05 00:44:37;;;;;;;68.68;29.80;;;3.90;99.90;;;;;;5070222;28;20032;-71
2022/12/05 00:47:03;;;;;;;65.75;30.08;;;3.90;99.90;;;;;;5065961;28;20563;-71
2022/12/05 00:49:28;;;;;;;64.40;29.33;;;3.90;99.90;;;;;;5054727;28;20079;-71
2022/12/05 00:51:54;;;;;;;64.03;30.15;;;3.90;99.90;;;;;;5057218;28;20035;-71
2022/12/05 00:54:20;;;;;;;72.07;29.98;;;3.90;99.90;;;;;;5081599;28;20032;-72
2022/12/05 00:56:45;;;;;;;64.45;29.60;;;3.90;99.90;;;;;;5070103;28;20020;-72
2022/12/05 00:59:16;;;;;;;62.05;28.95;;;3.90;99.90;;;;;;5068780;28;20473;-72
2022/12/05 01:01:45;;;;;;;63.17;28.48;;;4.00;99.90;;;;;;5069643;28;20464;-71
2022/12/05 01:04:13;;;;;;;63.47;29.77;;;4.00;99.90;;;;;;5067842;28;20416;-72
2022/12/05 01:06:39;;;;;;;62.90;27.60;;;4.00;99.90;;;;;;5069427;28;20070;-71
2022/12/05 01:09:06;;;;;;;60.65;28.00;;;4.00;99.90;;;;;;5055348;28;20020;-71
2022/12/05 01:11:32;;;;;;;62.50;28.42;;;4.00;99.90;;;;;;5069422;28;20016;-71
2022/12/05 01:13:58;;;;;;;62.03;27.90;;;4.00;99.90;;;;;;5069578;28;20035;-71
2022/12/05 01:16:29;;;;;;;62.90;27.70;;;4.00;99.90;;;;;;5074306;28;20476;-71
2022/12/05 01:18:56;;;;;;;58.47;27.00;;;4.00;99.90;;;;;;5063608;28;20038;-71
2022/12/05 01:21:22;;;;;;;58.78;26.65;;;4.00;99.90;;;;;;5049746;28;20030;-71
2022/12/05 01:23:48;;;;;;;61.00;28.00;;;4.00;99.90;;;;;;5064073;28;20064;-71
2022/12/05 01:26:16;;;;;;;59.28;27.40;;;4.00;99.90;;;;;;5067913;28;20059;-71
2022/12/05 01:28:42;;;;;;;56.83;26.70;;;4.10;99.90;;;;;;5058639;28;20265;-71
2022/12/05 01:31:16;;;;;;;61.08;28.55;;;4.10;99.90;;;;;;5069947;28;20552;-71
2022/12/05 01:33:42;;;;;;;61.83;28.13;;;4.10;99.90;;;;;;5068136;28;20105;-71
2022/12/05 01:36:11;;;;;;;59.35;27.17;;;4.10;99.90;;;;;;5065329;28;20080;-71
2022/12/05 01:38:39;;;;;;;63.30;27.60;;;4.10;99.90;;;;;;5055080;28;20035;-71
2022/12/05 01:41:06;;;;;;;61.75;28.17;;;4.10;99.90;;;;;;5053175;28;20025;-72
2022/12/05 01:43:32;;;;;;;62.33;27.35;;;4.10;99.90;;;;;;5066427;28;20052;-71
2022/12/05 01:45:58;;;;;;;61.03;27.90;;;4.10;99.90;;;;;;5066486;28;20041;-72
2022/12/05 01:48:33;;;;;;;64.18;27.80;;;4.10;99.90;;;;;;5069072;28;20048;-71
2022/12/05 01:50:59;;;;;;;59.72;26.73;;;4.10;99.90;;;;;;5069994;28;20404;-71
2022/12/05 01:53:26;;;;;;;64.68;28.30;;;4.10;99.90;;;;;;5067992;28;20032;-71
2022/12/05 01:55:53;;;;;;;59.15;27.02;;;4.10;99.90;;;;;;5060380;28;20115;-71
2022/12/05 01:58:19;;;;;;;59.35;26.90;;;4.10;99.90;;;;;;5068179;28;20550;-71
2022/12/05 02:00:45;;;;;;;56.40;25.92;;;4.10;99.90;;;;;;5059255;28;20111;-72
2022/12/05 02:03:17;;;;;;;62.78;26.88;;;4.10;99.90;;;;;;5069604;28;20416;-72
2022/12/05 02:05:45;;;;;;;55.55;25.70;;;4.20;99.90;;;;;;5060547;28;20028;-72
2022/12/05 02:08:11;;;;;;;61.53;26.58;;;4.20;99.90;;;;;;5068326;28;20556;-72
2022/12/05 02:10:46;;;;;;;57.63;26.48;;;4.20;99.90;;;;;;5067618;28;20103;-71
2022/12/05 02:13:17;;;;;;;;;;;4.20;99.90;;;;;;5056056;28;20330;-72
2022/12/05 02:15:56;;;;;;;60.20;26.60;;;4.20;99.90;;;;;;5064445;28;20249;-71
2022/12/05 02:18:42;;;;;;;61.92;26.23;;;4.20;99.90;;;;;;5052901;28;20104;-71
2022/12/05 02:21:27;;;;;;;61.00;26.45;;;4.20;99.90;;;;;;5063328;28;20484;-71
2022/12/05 02:24:08;;;;;;;60.60;26.15;;;4.20;99.90;;;;;;5069401;28;20029;-72
2022/12/05 02:26:51;;;;;;;57.65;26.83;;;4.20;99.90;;;;;;5063048;28;20032;-72
2022/12/05 02:29:40;;;;;;;59.30;26.30;;;4.20;99.90;;;;;;5069418;28;20071;-72
2022/12/05 02:32:17;;;;;;;59.50;26.15;;;4.20;99.90;;;;;;5058093;28;20029;-72
2022/12/05 02:35:15;;;;;;;56.92;26.15;;;4.20;99.90;;;;;;5066458;28;20025;-71
2022/12/05 02:37:47;;;;;;;59.95;26.67;;;4.30;99.90;;;;;;5065109;28;20148;-71
2022/12/05 02:40:29;;;;;;;59.28;26.42;;;4.20;99.90;;;;;;5060910;28;20024;-71
2022/12/05 02:43:06;;;;;;;56.25;25.65;;;4.20;99.90;;;;;;5072168;28;20036;-72
2022/12/05 02:45:34;;;;;;;60.15;27.38;;;4.30;99.90;;;;;;5071787;28;20094;-72
2022/12/05 02:48:01;;;;;;;59.88;26.50;;;4.30;99.90;;;;;;5059162;28;20047;-72
2022/12/05 02:50:37;;;;;;;61.90;27.67;;;4.30;99.90;;;;;;5071936;28;20021;-71
2022/12/05 02:53:07;;;;;;;59.85;26.48;;;4.30;99.90;;;;;;5071754;28;20115;-71
2022/12/05 02:55:34;;;;;;;59.53;26.90;;;4.30;99.90;;;;;;5060440;28;20040;-72
2022/12/05 02:58:05;;;;;;;60.40;26.95;;;4.30;99.90;;;;;;5062909;28;20035;-72
2022/12/05 03:00:30;;;;;;;59.10;26.63;;;4.30;99.90;;;;;;5072385;28;20009;-72
2022/12/05 03:02:58;;;;;;;59.65;26.38;;;4.30;99.90;;;;;;5072529;28;20031;-71
2022/12/05 03:06:04;;;;;;;60.58;27.67;;;4.30;99.90;;;;;;5070339;28;20029;-72
2022/12/05 03:08:32;;;;;;;;;;;4.30;99.90;;;;;;5070313;28;20039;-71
2022/12/05 03:11:01;;;;;;;61.75;26.27;;;4.30;99.90;;;;;;5069797;28;19927;-71
2022/12/05 03:13:38;;;;;;;60.13;26.63;;;4.30;99.90;;;;;;5071551;28;20039;-72
2022/12/05 03:16:12;;;;;;;60.95;27.88;;;4.30;99.90;;;;;;5071940;28;20024;-72
2022/12/05 03:19:00;;;;;;;57.00;26.73;;;4.30;99.90;;;;;;5072573;28;20028;-71
2022/12/05 03:21:42;;;;;;;63.10;27.90;;;4.30;99.90;;;;;;5071600;28;20116;-72
2022/12/05 03:24:12;;;;;;;62.42;27.10;;;4.30;99.90;;;;;;5071820;28;20017;-72
2022/12/05 03:26:56;;;;;;;60.65;26.77;;;4.40;99.90;;;;;;5073383;28;20059;-72
2022/12/05 03:29:37;;;;;;;61.58;27.60;;;4.40;99.90;;;;;;5058686;28;20118;-72
2022/12/05 03:32:08;;;;;;;60.20;27.17;;;4.40;99.90;;;;;;5065881;28;20036;-72
2022/12/05 03:34:53;;;;;;;56.65;26.77;;;4.40;99.90;;;;;;5069104;28;20032;-72
2022/12/05 03:37:27;;;;;;;60.95;28.17;;;4.40;99.90;;;;;;5068059;28;20392;-73
2022/12/05 03:40:24;;;;;;;66.43;27.17;;;4.40;99.90;;;;;;5056007;28;20033;-73
2022/12/05 03:42:59;;;;;;;58.10;25.67;;;4.30;99.90;;;;;;5068045;28;20044;-72
2022/12/05 03:45:33;;;;;;;62.28;27.88;;;4.40;99.90;;;;;;5066886;28;20055;-72
2022/12/05 03:48:04;;;;;;;56.20;26.10;;;4.40;99.90;;;;;;5057831;28;20070;-72
2022/12/05 03:50:30;;;;;;;60.25;26.73;;;4.40;99.90;;;;;;5056029;28;20074;-72
2022/12/05 03:53:26;;;;;;;59.33;26.45;;;4.40;99.90;;;;;;5070031;28;20024;-72
2022/12/05 03:56:02;;;;;;;62.80;27.10;;;4.40;99.90;;;;;;5070508;28;20059;-72
2022/12/05 03:58:40;;;;;;;67.88;27.27;;;4.40;99.90;;;;;;5071589;28;20485;-72
2022/12/05 04:01:08;;;;;;;58.33;27.25;;;4.40;99.90;;;;;;5069319;28;20032;-72
2022/12/05 04:03:41;;;;;;;61.70;28.05;;;4.50;99.90;;;;;;5069728;28;20490;-72
2022/12/05 04:06:25;;;;;;;58.95;26.23;;;4.50;99.90;;;;;;5058086;28;20469;-72
2022/12/05 04:08:57;;;;;;;59.22;25.90;;;4.50;99.90;;;;;;5054934;28;20439;-72
2022/12/05 04:11:27;;;;;;;58.42;26.30;;;4.50;99.90;;;;;;5069852;28;20111;-72
2022/12/05 04:13:58;;;;;;;55.78;25.27;;;4.50;99.90;;;;;;5070793;28;20024;-72
2022/12/05 04:21:36;;;;;;;55.25;24.95;;;4.50;99.90;;;;;;5071346;28;20369;-72
2022/12/05 04:22:15;;;;;;;58.47;25.17;;;4.50;99.90;;;;;;5066010;28;20119;-72
2022/12/05 04:27:53;;;;;;;55.38;24.90;;;4.50;99.90;;;;;;5055976;28;20074;-74
2022/12/05 04:30:21;;;;;;;55.63;24.85;;;4.50;99.90;;;;;;5065773;28;20423;-72
2022/12/05 04:33:18;;;;;;;59.08;24.38;;;4.50;99.90;;;;;;5066821;28;20028;-70
2022/12/05 04:35:56;;;;;;;57.58;25.05;;;4.60;99.90;;;;;;5069196;28;20029;-72
2022/12/05 04:38:30;;;;;;;54.55;23.95;;;4.60;99.90;;;;;;5063786;28;20181;-72
2022/12/05 04:41:05;;;;;;;39.45;17.67;;;4.60;99.90;;;;;;5056393;28;20495;-73
2022/12/05 04:43:35;;;;;;;52.08;22.25;;;4.60;99.90;;;;;;5069880;28;20032;-72
2022/12/05 04:46:05;;;;;;;54.22;23.13;;;4.60;99.90;;;;;;5077548;28;20487;-72
2022/12/05 04:48:34;;;;;;;54.92;24.10;;;4.60;99.90;;;;;;5075632;28;20052;-72
2022/12/05 04:51:03;;;;;;;49.20;23.67;;;4.60;99.90;;;;;;5068570;28;20021;-72
2022/12/05 04:53:29;;;;;;;51.45;23.63;;;4.60;99.90;;;;;;5069338;28;20464;-72
2022/12/05 04:55:58;;;;;;;49.83;23.67;;;4.70;99.90;;;;;;5070764;28;20036;-72
2022/12/05 04:58:26;;;;;;;46.92;22.58;;;4.60;99.90;;;;;;5068159;28;20036;-72
2022/12/05 05:01:02;;;;;;;54.03;24.45;;;4.70;99.90;;;;;;5067994;28;20027;-72
2022/12/05 05:03:37;;;;;;;50.58;23.80;;;4.70;99.90;;;;;;5068313;28;20377;-72
2022/12/05 05:06:03;;;;;;;49.58;23.52;;;4.70;99.90;;;;;;5070257;28;20048;-72
2022/12/05 05:08:29;;;;;;;54.00;23.98;;;4.70;99.90;;;;;;5055925;28;20102;-72
2022/12/05 05:11:10;;;;;;;46.70;22.08;;;4.70;99.90;;;;;;5047716;28;20029;-72
2022/12/05 05:13:35;;;;;;;50.78;23.67;;;4.70;99.90;;;;;;5067109;28;20032;-72
2022/12/05 05:16:01;;;;;;;53.72;24.15;;;4.70;99.90;;;;;;5070175;28;20515;-72
2022/12/05 05:18:27;;;;;;;48.97;23.70;;;4.80;99.90;;;;;;5064447;28;20017;-73
2022/12/05 05:20:52;;;;;;;49.63;23.63;;;4.80;99.90;;;;;;5057700;28;20052;-72
2022/12/05 05:23:18;;;;;;;52.63;23.80;;;4.80;99.90;;;;;;5053887;28;20512;-72
2022/12/05 05:25:43;;;;;;;52.53;24.55;;;4.70;99.90;;;;;;5063027;28;20079;-72
2022/12/05 05:28:09;;;;;;;54.40;24.23;;;4.80;99.90;;;;;;5061725;28;20020;-72
2022/12/05 05:30:35;;;;;;;50.30;23.88;;;4.80;99.90;;;;;;5054342;28;20468;-72
2022/12/05 05:33:00;;;;;;;52.40;25.33;;;4.80;99.90;;;;;;5059296;28;20025;-72
2022/12/05 05:35:26;;;;;;;53.03;23.60;;;4.80;99.90;;;;;;5065324;28;20103;-72
2022/12/05 05:37:51;;;;;;;52.67;24.65;;;4.80;99.90;;;;;;5067132;28;20115;-72
2022/12/05 05:40:17;;;;;;;50.15;23.58;;;4.80;99.90;;;;;;5068099;28;20421;-72
2022/12/05 05:42:47;;;;;;;53.55;24.60;;;4.90;99.90;;;;;;5069891;28;20025;-72
2022/12/05 05:45:14;;;;;;;55.50;24.88;;;4.90;99.90;;;;;;5068780;28;20464;-72
2022/12/05 05:47:40;;;;;;;51.88;23.95;;;4.90;99.90;;;;;;5053932;28;20020;-72
2022/12/05 05:50:07;;;;;;;51.45;23.60;;;4.90;99.90;;;;;;5066990;28;20048;-72
2022/12/05 05:52:34;;;;;;;52.97;25.33;;;4.90;99.90;;;;;;5065790;28;20025;-72
2022/12/05 05:55:01;;;;;;;52.97;24.70;;;4.90;99.90;;;;;;5060818;28;20262;-72
2022/12/05 05:57:26;;;;;;;53.72;24.70;;;4.90;99.90;;;;;;5067748;28;20031;-72
2022/12/05 05:59:52;;;;;;;54.70;24.70;;;5.00;99.90;;;;;;5065759;28;20025;-72
2022/12/05 06:02:18;;;;;;;54.30;25.45;;;5.00;99.90;;;;;;5068102;28;20048;-72
2022/12/05 06:04:44;;;;;;;55.25;24.88;;;5.00;99.90;;;;;;5066690;28;20116;-72
2022/12/05 06:07:10;;;;;;;54.25;25.05;;;5.00;99.90;;;;;;5067928;28;20021;-72
2022/12/05 06:09:36;;;;;;;60.50;25.50;;;5.00;99.90;;;;;;5058746;28;20126;-72
2022/12/05 06:12:02;;;;;;;57.38;25.52;;;5.00;99.90;;;;;;5059017;28;20013;-72
2022/12/05 06:14:27;;;;;;;60.25;26.42;;;5.00;99.90;;;;;;5060448;28;20021;-72
2022/12/05 06:16:53;;;;;;;53.63;25.42;;;5.10;99.90;;;;;;5063339;28;20374;-72
2022/12/05 06:19:18;;;;;;;58.15;25.23;;;5.10;99.90;;;;;;5058847;28;20075;-72
2022/12/05 06:21:44;;;;;;;54.03;25.20;;;5.10;99.90;;;;;;5069698;28;20017;-72
2022/12/05 06:24:10;;;;;;;62.72;26.70;;;5.10;99.90;;;;;;5070970;28;20035;-72
2022/12/05 06:26:35;;;;;;;63.05;27.00;;;5.10;99.90;;;;;;5070950;28;20111;-72
2022/12/05 06:29:01;;;;;;;59.70;26.42;;;5.10;99.90;;;;;;5073224;28;20045;-72
2022/12/05 06:31:29;;;;;;;66.10;27.02;;;5.10;99.90;;;;;;5072903;28;20024;-72
2022/12/05 06:33:58;;;;;;;64.03;26.58;;;5.10;99.90;;;;;;5068593;28;20098;-72
2022/12/05 06:36:23;;;;;;;64.05;27.02;;;5.20;99.90;;;;;;5064955;28;20028;-72
2022/12/05 06:38:49;;;;;;;63.17;27.00;;;5.20;99.90;;;;;;5065808;28;20047;-72
2022/12/05 06:41:17;;;;;;;61.25;26.48;;;5.20;99.90;;;;;;5067175;28;20353;-76
2022/12/05 06:43:43;;;;;;;59.38;25.95;;;5.20;99.90;;;;;;5060969;28;20029;-72
2022/12/05 06:46:10;;;;;;;63.92;26.30;;;5.20;99.90;;;;;;5059273;28;20151;-71
2022/12/05 06:48:36;;;;;;;59.95;25.65;;;5.20;99.90;;;;;;5056361;28;20053;-71
2022/12/05 06:51:02;;;;;;;57.03;25.52;;;5.20;99.90;;;;;;5057397;28;20043;-72
2022/12/05 06:53:28;;;;;;;55.33;25.48;;;5.20;99.90;;;;;;5067822;28;20141;-71
2022/12/05 06:56:02;;;;;;;57.38;25.80;;;5.20;99.90;;;;;;5071251;28;20060;-71
2022/12/05 06:58:29;;;;;;;39.80;18.80;;;5.30;99.90;;;;;;5063779;28;20032;-71
2022/12/05 07:03:39;;;;;;;54.70;25.60;;;5.30;99.90;;;;;;5066491;28;20039;-70
2022/12/05 07:06:06;;;;;;;53.20;25.05;;;5.30;99.90;;;;;;5067089;28;20490;-71
2022/12/05 07:08:32;;;;;;;58.63;25.67;;;5.30;99.90;;;;;;5071094;28;20029;-72
2022/12/05 07:10:58;;;;;;;50.35;23.98;;;5.30;99.90;;;;;;5062279;28;20468;-72
2022/12/05 07:13:24;;;;;;;52.55;24.08;;;5.40;99.90;;;;;;5065955;28;20028;-71
2022/12/05 07:15:49;;;;;;;58.95;25.02;;;5.40;99.90;;;;;;5066099;28;20680;-72
2022/12/05 07:18:16;;;;;;;48.00;23.52;;;5.40;99.90;;;;;;5060745;28;20031;-72
2022/12/05 07:20:42;;;;;;;50.67;23.75;;;5.40;99.90;;;;;;5065962;28;20028;-72
2022/12/05 07:23:09;;;;;;;51.65;23.70;;;5.40;99.90;;;;;;5058958;28;20027;-72
2022/12/05 07:25:39;;;;;;;47.70;22.65;;;5.40;99.90;;;;;;5061771;28;20500;-72
2022/12/05 07:28:05;;;;;;;47.72;22.90;;;5.50;99.90;;;;;;5061763;28;20075;-72
2022/12/05 07:30:30;;;;;;;45.17;22.15;;;5.40;99.90;;;;;;5068149;28;20495;-73
2022/12/05 07:32:56;;;;;;;52.10;23.00;;;5.40;99.90;;;;;;5069040;28;20056;-73
2022/12/05 07:35:21;;;;;;;39.95;20.65;;;5.50;99.90;;;;;;5065595;28;20052;-73
2022/12/05 07:37:47;;;;;;;39.45;20.70;;;5.50;99.90;;;;;;5068941;28;20506;-73
2022/12/05 07:40:13;;;;;;;44.40;21.02;;;5.50;99.90;;;;;;5064962;28;20444;-72
2022/12/05 07:42:38;;;;;;;35.78;19.20;;;5.50;99.90;;;;;;5067655;28;20380;-72
2022/12/05 07:45:05;;;;;;;37.28;19.98;;;5.50;99.90;;;;;;5068291;28;20060;-72
2022/12/05 07:47:30;;;;;;;35.33;18.67;;;5.50;99.90;;;;;;5050001;28;20440;-71
2022/12/05 07:49:56;;;;;;;33.10;17.85;;;5.50;99.90;;;;;;5067806;28;20128;-71
2022/12/05 07:52:22;;;;;;;38.83;18.80;;;5.60;99.90;;;;;;5055627;28;20393;-71
2022/12/05 07:54:47;;;;;;;34.50;16.92;;;5.60;99.90;;;;;;5070778;28;20055;-72
2022/12/05 07:57:13;;;;;;;35.10;17.80;;;5.60;99.90;;;;;;5069929;28;20028;-71
2022/12/05 07:59:38;;;;;;;35.47;17.88;;;5.60;99.90;;;;;;5071754;28;20454;-71
2022/12/05 08:02:04;;;;;;;32.42;17.35;;;5.60;99.90;;;;;;5058371;28;20017;-71
2022/12/05 08:04:29;;;;;;;31.30;17.02;;;5.60;99.90;;;;;;5070834;28;20462;-71
2022/12/05 08:06:56;;;;;;;33.05;18.10;;;5.60;99.90;;;;;;5071516;28;20409;-71
2022/12/05 08:09:22;;;;;;;32.00;16.48;;;5.60;99.90;;;;;;5069011;28;20070;-71
2022/12/05 08:11:48;;;;;;;30.35;16.27;;;5.60;99.90;;;;;;5069570;28;20025;-71
2022/12/05 08:14:13;;;;;;;26.40;15.45;;;5.60;99.90;;;;;;5069561;28;20027;-70
2022/12/05 08:16:39;;;;;;;28.90;15.73;;;5.60;99.90;;;;;;5062358;28;20518;-71
2022/12/05 08:19:07;;;;;;;26.65;15.05;;;5.60;99.90;;;;;;5062748;28;20044;-71
2022/12/05 08:21:33;;;;;;;25.05;14.10;;;5.70;99.90;;;;;;5069044;28;20107;-70
2022/12/05 08:24:00;;;;;;;26.58;14.88;;;5.70;99.90;;;;;;5070675;28;20020;-71
2022/12/05 08:26:28;;;;;;;26.27;14.93;;;5.70;99.90;;;;;;5063732;28;20092;-70
2022/12/05 08:29:03;;;;;;;23.33;14.38;;;5.70;99.90;;;;;;5062391;28;20051;-73
2022/12/05 08:31:31;;;;;;;27.85;15.05;;;5.70;99.90;;;;;;5068976;28;20025;-73
2022/12/05 08:33:58;;;;;;;25.58;15.05;;;5.70;99.90;;;;;;5070821;28;20177;-72
2022/12/05 08:36:25;;;;;;;24.25;14.82;;;5.70;99.90;;;;;;5066975;28;20043;-72
2022/12/05 08:38:55;;;;;;;23.63;14.30;;;5.70;99.90;;;;;;5068879;28;20021;-72
2022/12/05 08:41:21;;;;;;;27.73;14.73;;;5.70;99.90;;;;;;5067819;28;20024;-72
2022/12/05 08:43:47;;;;;;;26.17;14.80;;;5.80;99.90;;;;;;5070432;28;20099;-72
2022/12/05 08:46:12;;;;;;;24.30;13.68;;;5.80;99.90;;;;;;5067552;28;20380;-73
2022/12/05 08:48:38;;;;;;;25.15;14.95;;;5.80;99.90;;;;;;5067301;28;20052;-73
2022/12/05 08:51:06;;;;;;;23.45;14.23;;;5.80;99.90;;;;;;5054706;28;20099;-72
2022/12/05 08:53:32;;;;;;;23.75;14.27;;;5.80;99.90;;;;;;5070627;28;20032;-73
2022/12/05 08:56:03;;;;;;;23.85;14.30;;;5.80;99.90;;;;;;5072724;28;20077;-72
2022/12/05 08:58:29;;;;;;;24.92;14.32;;;5.80;99.90;;;;;;5077916;28;20103;-73
2022/12/05 09:01:20;;;;;;;27.42;14.38;;;5.90;99.90;;;;;;5055011;28;20165;-72
2022/12/05 09:03:46;;;;;;;23.40;13.95;;;5.80;99.90;;;;;;5069922;28;20359;-72
2022/12/05 09:06:15;;;;;;;23.45;14.65;;;5.80;99.90;;;;;;5069344;28;20107;-73
2022/12/05 09:08:41;;;;;;;21.65;13.77;;;5.80;99.90;;;;;;5070139;28;20016;-72
2022/12/05 09:11:19;;;;;;;22.38;13.98;;;5.90;99.90;;;;;;5068119;28;20035;-73
2022/12/05 09:13:45;;;;;;;23.92;14.32;;;5.90;99.90;;;;;;5068663;28;20036;-71
2022/12/05 09:16:14;;;;;;;25.02;14.68;;;5.90;99.90;;;;;;5070012;28;20071;-72
2022/12/05 09:18:39;;;;;;;24.05;14.40;;;5.90;99.90;;;;;;5065964;28;20028;-71
2022/12/05 09:21:17;;;;;;;21.33;12.95;;;5.90;99.90;;;;;;5060920;28;20104;-72
2022/12/05 09:23:43;;;;;;;24.33;12.75;;;5.90;99.90;;;;;;5062764;28;20055;-71
2022/12/05 09:26:12;;;;;;;22.48;13.38;;;5.90;99.90;;;;;;5068560;28;20028;-71
2022/12/05 09:28:38;;;;;;;21.67;12.98;;;5.90;99.90;;;;;;5068157;28;20060;-71
2022/12/05 09:31:06;;;;;;;18.60;11.95;;;5.90;99.90;;;;;;5068382;28;20020;-71
2022/12/05 09:33:34;;;;;;;22.05;12.23;;;5.90;99.90;;;;;;5070056;28;20446;-71
2022/12/05 09:36:04;;;;;;;18.42;11.60;;;5.90;99.90;;;;;;5069899;28;20311;-71
2022/12/05 09:38:30;;;;;;;18.77;11.35;;;5.90;99.90;;;;;;5055974;28;20029;-71
2022/12/05 09:44:39;;;;;;;17.15;10.88;;;6.00;99.90;;;;;;5021605;28;20088;-72
2022/12/05 09:47:14;;;;;;;18.98;10.85;;;5.90;99.90;;;;;;5023371;28;20032;-71
2022/12/05 09:49:48;;;;;;;20.02;11.75;;;6.00;99.90;;;;;;5024955;28;20053;-72
2022/12/05 09:52:25;;;;;;;18.20;11.15;;;6.00;99.90;;;;;;5030898;28;20022;-71
2022/12/05 09:54:52;;;;;;;17.35;10.40;;;6.00;99.90;;;;;;5028370;28;20072;-71
2022/12/05 09:57:25;;;;;;;17.23;10.57;;;6.00;99.90;;;;;;5014175;28;20032;-71
2022/12/05 09:59:51;;;;;;;15.57;10.55;;;6.00;99.90;;;;;;5027817;28;20025;-73
2022/12/05 10:02:39;;;;;;;14.85;9.88;;;6.00;99.90;;;;;;5026896;28;20232;-71
2022/12/05 10:05:18;;;;;;;15.27;9.90;;;6.00;99.90;;;;;;5018552;28;20096;-71
2022/12/05 10:08:13;;;;;;;17.85;10.75;;;6.00;99.90;;;;;;5028828;28;20061;-72
2022/12/05 10:10:59;;;;;;;14.95;7.97;;;6.10;99.90;;;;;;5022512;28;20490;-71
2022/12/05 10:13:39;;;;;;;15.18;9.55;;;6.00;99.90;;;;;;5025144;28;20395;-72
2022/12/05 10:16:13;;;;;;;15.65;9.65;;;6.00;99.90;;;;;;5022948;28;20536;-71
2022/12/05 10:18:47;;;;;;;16.15;10.30;;;6.00;99.90;;;;;;5028841;28;20065;-71
2022/12/05 10:21:40;;;;;;;11.63;7.30;;;6.10;99.90;;;;;;5053984;28;20056;-71
2022/12/05 10:24:16;;;;;;;17.02;9.90;;;6.10;99.90;;;;;;5063996;28;20120;-71
2022/12/05 10:27:01;;;;;;;16.38;10.77;;;6.10;99.90;;;;;;5070804;28;20798;-71
2022/12/05 10:29:49;;;;;;;18.48;10.30;;;6.10;99.90;;;;;;5072282;28;20031;-71
2022/12/05 10:32:35;;;;;;;17.27;10.77;;;6.10;99.90;;;;;;5069763;28;20039;-71
2022/12/05 10:35:15;;;;;;;;;;;6.10;99.90;;;;;;5068351;28;20505;-71
2022/12/05 10:37:54;;;;;;;17.88;11.10;;;6.20;99.90;;;;;;5060170;28;19947;-71
2022/12/05 10:40:20;;;;;;;17.67;10.52;;;6.10;99.90;;;;;;5075224;28;20032;-71
2022/12/05 10:42:48;;;;;;;16.40;10.70;;;6.10;99.90;;;;;;5071139;28;20017;-71
2022/12/05 10:45:21;;;;;;;17.30;10.27;;;6.20;99.90;;;;;;5068012;28;20025;-72
2022/12/05 10:47:47;;;;;;;16.95;11.00;;;6.20;99.90;;;;;;5072350;28;20052;-71
2022/12/05 10:50:31;;;;;;;18.38;10.82;;;6.20;99.90;;;;;;5071970;28;20059;-72
2022/12/05 10:52:59;;;;;;;19.13;11.02;;;6.20;99.90;;;;;;5071482;28;20362;-71
2022/12/05 10:55:36;;;;;;;17.55;9.85;;;6.30;99.90;;;;;;5071727;28;20033;-71
2022/12/05 10:58:09;;;;;;;16.58;10.23;;;6.20;99.90;;;;;;5065496;28;20036;-73
2022/12/05 11:00:36;;;;;;;19.27;10.95;;;6.20;99.90;;;;;;5057022;28;20025;-71
2022/12/05 11:03:04;;;;;;;16.52;10.23;;;6.20;99.90;;;;;;5066714;28;20029;-71
2022/12/05 11:05:32;;;;;;;17.40;10.13;;;6.30;99.90;;;;;;5070671;28;20021;-73
2022/12/05 11:07:58;;;;;;;16.02;9.80;;;6.30;99.90;;;;;;5071801;28;20020;-73
2022/12/05 11:10:36;;;;;;;15.50;9.85;;;6.30;99.90;;;;;;5066489;28;20016;-71
2022/12/05 11:13:22;;;;;;;15.48;10.23;;;6.30;99.90;;;;;;5067104;28;20387;-71
2022/12/05 11:15:48;;;;;;;15.30;9.07;;;6.30;99.90;;;;;;5067750;28;20028;-71
2022/12/05 11:18:32;;;;;;;15.65;9.18;;;6.30;99.90;;;;;;5063344;28;20016;-71
2022/12/05 11:21:12;;;;;;;14.30;8.80;;;6.30;99.90;;;;;;5067092;28;20036;-72
2022/12/05 11:23:38;;;;;;;14.85;8.25;;;6.30;99.90;;;;;;5070987;28;20263;-71
2022/12/05 11:26:34;;;;;;;12.20;8.40;;;6.30;99.90;;;;;;5066577;28;20035;-71
2022/12/05 11:29:00;;;;;;;;;;;6.30;99.90;;;;;;5071796;28;20021;-71
2022/12/05 11:31:28;;;;;;;12.93;8.60;;;6.20;99.90;;;;;;5069385;28;19904;-71
2022/12/05 11:34:17;;;;;;;15.73;9.00;;;6.20;99.90;;;;;;5071562;28;20103;-71
2022/12/05 11:36:49;;;;;;;13.50;8.65;;;6.30;99.90;;;;;;5057995;28;20036;-72
2022/12/05 11:39:15;;;;;;;14.45;9.07;;;6.30;99.90;;;;;;5070711;28;20028;-71
2022/12/05 11:42:16;;;;;;;18.15;9.50;;;6.30;99.90;;;;;;5068843;28;20031;-71
2022/12/05 11:44:59;;;;;;;12.90;8.93;;;6.30;99.90;;;;;;5070373;28;20028;-71
2022/12/05 11:47:34;;;;;;;16.65;8.93;;;6.30;99.90;;;;;;5078296;28;20158;-71
2022/12/05 11:50:22;;;;;;;17.20;9.13;;;6.30;99.90;;;;;;5069711;28;20487;-71
2022/12/05 11:53:34;;;;;;;16.27;8.52;;;6.30;99.90;;;;;;5072056;28;20103;-72
2022/12/05 11:56:40;;;;;;;12.93;8.40;;;6.30;99.90;;;;;;5059931;28;20453;-71
2022/12/05 11:59:47;;;;;;;10.50;6.35;;;6.30;99.90;;;;;;5059465;28;20048;-71
2022/12/05 12:02:37;;;;;;;15.43;8.35;;;6.30;99.90;;;;;;5070419;28;20028;-72
2022/12/05 12:05:15;;;;;;;15.25;8.85;;;6.40;99.90;;;;;;5070150;28;20064;-71
2022/12/05 12:07:55;;;;;;;16.60;9.32;;;6.40;99.90;;;;;;5070305;28;20066;-71
2022/12/05 12:10:33;;;;;;;16.73;9.30;;;6.40;99.90;;;;;;5070345;28;20453;-71
2022/12/05 12:13:19;;;;;;;13.63;8.13;;;6.40;99.90;;;;;;5058879;28;20025;-72
2022/12/05 12:16:09;;;;;;;14.73;8.88;;;6.40;99.90;;;;;;5068992;28;20025;-70
2022/12/05 12:18:43;;;;;;;18.20;10.23;;;6.40;99.90;;;;;;5070356;28;20035;-71
2022/12/05 12:21:41;;;;;;;16.55;9.05;;;6.40;99.90;;;;;;5054671;28;20021;-71
2022/12/05 12:24:10;;;;;;;14.57;8.93;;;6.50;99.90;;;;;;5054774;28;20025;-71
2022/12/05 12:27:08;;;;;;;17.15;9.00;;;6.50;99.90;;;;;;5064282;28;20097;-71
2022/12/05 12:29:54;;;;;;;16.52;7.80;;;6.50;99.90;;;;;;5057445;28;20024;-71
2022/12/05 12:32:42;;;;;;;15.77;8.63;;;6.50;99.90;;;;;;5058605;28;20028;-71
2022/12/05 12:35:41;;;;;;;14.05;7.70;;;6.50;99.90;;;;;;5050473;28;20021;-71
2022/12/05 12:38:42;;;;;;;13.57;8.60;;;6.50;99.90;;;;;;5066944;28;20024;-71
2022/12/05 12:41:39;;;;;;;16.77;8.30;;;6.50;99.90;;;;;;5068508;28;20040;-71
2022/12/05 12:44:22;;;;;;;15.75;7.88;;;6.50;99.90;;;;;;5059960;28;20033;-71
2022/12/05 12:47:08;;;;;;;15.00;8.40;;;6.50;99.90;;;;;;5051449;28;20526;-72
2022/12/05 12:49:37;;;;;;;14.00;7.93;;;6.50;99.90;;;;;;5063819;28;20052;-71
2022/12/05 12:52:11;;;;;;;15.27;8.68;;;6.50;99.90;;;;;;5054384;28;20020;-70
2022/12/05 12:54:56;;;;;;;18.73;8.82;;;6.50;99.90;;;;;;5068946;28;20039;-70
2022/12/05 12:57:25;;;;;;;;;;;6.50;99.90;;;;;;5066582;28;20024;-71
2022/12/05 13:00:11;;;;;;;16.77;9.50;;;6.50;99.90;;;;;;5053673;28;19940;-70
2022/12/05 13:02:50;;;;;;;18.50;8.85;;;6.50;99.90;;;;;;5063444;28;20029;-71
2022/12/05 13:05:32;;;;;;;16.10;8.70;;;6.50;99.90;;;;;;5048679;28;20040;-71
2022/12/05 13:08:10;;;;;;;14.05;8.85;;;6.50;99.90;;;;;;5055937;28;20052;-71
2022/12/05 13:10:44;;;;;;;18.17;9.30;;;6.50;99.90;;;;;;5068548;28;20029;-71
2022/12/05 13:13:18;;;;;;;17.50;9.80;;;6.50;99.90;;;;;;5063819;28;20032;-71
2022/12/05 13:15:49;;;;;;;18.80;10.18;;;6.50;99.90;;;;;;5069915;28;20066;-71
2022/12/05 13:18:21;;;;;;;19.05;9.50;;;6.50;99.90;;;;;;5067780;28;20032;-71